Pagrindinis puslapis
METAR-TAF:

METAR-TAF

Oro uostai :

Nelson Lagoon, Aliaska, Jungtinės Amerikos Valstijos

platuma: 56-00-27N, ilguma: 161-09-37W, Aukštis: 4 m

Dabartinis oras

Ataskaita buvo paskelbta 46 minutes, ne 02:56 UTC
Vėjas 13 kt iš Pietų/Pietryčių
Temperatūra -2°C
Drėgmė 86%
Slėgis 1016 hPa
Matomumas: 16.1 km
Giedras dangus

METAR: PAOU 290256Z AUTO 15013KT 10SM CLR M02/M04 A2999 RMK AO2 SLP155 T10171039 58028 FZRANO

Laikas: 18:42 (03:42 UTC)


TAF: trūkstamas

Orai ataskaitas ir orų prognozės (METAR, TAF).

turimą stotys yra geltonos ir raudonos taškus žemėlapyje.

Perkelti pele per norėdami pamatyti stoties vardą.

Tada spustelėkite, norėdami matyti oro stebėjimo ir prognozės.

Norėdami pakeisti žemėlapį: spustelėkite ant žalios mygtukų su juodo kryžiaus žemyn,; žalią mygtuką su brūkšneliu, jei norite nutolinti; arba žalių rodyklių gretimoms žemėlapius.


METAR-TAF: